createdAt,value
2023-04-18T05:01:49.619Z,5.30
2023-04-18T05:04:17.475Z,5.40
2023-04-18T05:06:45.189Z,5.60
2023-04-18T05:09:12.175Z,5.70
2023-04-18T05:11:38.981Z,5.80
2023-04-18T05:14:06.079Z,5.90
2023-04-18T05:16:33.553Z,5.90
2023-04-18T05:19:00.815Z,5.90
2023-04-18T05:21:28.885Z,5.90
2023-04-18T05:23:58.488Z,5.90
2023-04-18T05:26:25.847Z,5.80
2023-04-18T05:28:52.842Z,5.90
2023-04-18T05:31:19.772Z,6.00
2023-04-18T05:33:46.718Z,6.00
2023-04-18T05:36:13.677Z,6.20
2023-04-18T05:38:40.788Z,6.20
2023-04-18T05:41:07.622Z,6.20
2023-04-18T05:43:34.519Z,6.20
2023-04-18T05:46:01.662Z,6.20
2023-04-18T05:48:28.702Z,6.20
2023-04-18T05:50:58.689Z,6.30
2023-04-18T05:53:25.775Z,6.60
2023-04-18T05:55:52.954Z,6.90
2023-04-18T05:58:19.994Z,7.20
2023-04-18T06:00:48.388Z,8.10
2023-04-18T06:03:15.705Z,8.30
2023-04-18T06:05:45.530Z,8.00
2023-04-18T06:08:13.944Z,7.70
2023-04-18T06:10:41.123Z,7.50
2023-04-18T06:13:08.065Z,7.30
2023-04-18T06:15:35.655Z,7.40
2023-04-18T06:18:02.833Z,7.40
2023-04-18T06:20:30.038Z,7.20
2023-04-18T06:22:57.074Z,7.00
2023-04-18T06:25:24.961Z,7.00
2023-04-18T06:27:51.945Z,7.10
2023-04-18T06:30:22.160Z,7.10
2023-04-18T06:32:52.006Z,7.30
2023-04-18T06:35:18.969Z,7.20
2023-04-18T06:37:46.491Z,7.30
2023-04-18T06:40:13.784Z,7.50
2023-04-18T06:42:43.266Z,7.60
2023-04-18T06:45:12.284Z,7.70
2023-04-18T06:47:41.611Z,7.80
2023-04-18T06:50:09.171Z,8.00
2023-04-18T06:52:40.565Z,8.30
2023-04-18T06:55:09.402Z,8.60
2023-04-18T06:57:36.665Z,8.40
2023-04-18T07:00:05.343Z,8.10
2023-04-18T07:02:32.573Z,7.90
2023-04-18T07:05:01.487Z,8.00
2023-04-18T07:07:29.165Z,8.00
2023-04-18T07:09:56.392Z,8.20
2023-04-18T07:12:23.577Z,8.50
2023-04-18T07:14:54.277Z,8.70
2023-04-18T07:17:21.549Z,9.20
2023-04-18T07:19:50.936Z,9.40
2023-04-18T07:22:17.935Z,9.60
2023-04-18T07:24:47.061Z,9.60
2023-04-18T07:27:15.658Z,9.70
2023-04-18T07:29:42.712Z,10.30
2023-04-18T07:32:11.177Z,10.60
2023-04-18T07:34:41.549Z,10.80
2023-04-18T07:37:08.867Z,10.70
2023-04-18T07:39:36.304Z,10.90
2023-04-18T07:42:04.682Z,11.50
2023-04-18T07:44:32.180Z,12.30
2023-04-18T07:46:59.300Z,12.90
2023-04-18T07:49:26.472Z,13.30
2023-04-18T07:51:53.503Z,13.90
2023-04-18T07:54:23.049Z,14.60
2023-04-18T07:56:50.065Z,14.30
2023-04-18T07:59:17.292Z,14.10
2023-04-18T08:01:44.312Z,15.20
2023-04-18T08:04:12.016Z,16.90
2023-04-18T08:06:39.224Z,16.70
2023-04-18T08:09:06.318Z,15.40
2023-04-18T08:11:34.254Z,16.50
2023-04-18T08:14:04.647Z,17.20
2023-04-18T08:16:34.258Z,17.50
2023-04-18T08:19:03.852Z,17.00
2023-04-18T08:21:32.090Z,17.50
2023-04-18T08:23:59.394Z,17.40
2023-04-18T08:26:27.233Z,17.10
2023-04-18T08:28:54.244Z,16.10
2023-04-18T08:31:21.320Z,16.00
2023-04-18T08:33:48.409Z,15.80
2023-04-18T08:36:15.716Z,15.40
2023-04-18T08:38:42.798Z,15.10
2023-04-18T08:41:09.901Z,14.90
2023-04-18T08:43:38.203Z,13.80
2023-04-18T08:46:05.849Z,13.40
2023-04-18T08:48:33.039Z,13.10
2023-04-18T08:51:01.655Z,13.10
2023-04-18T08:53:29.373Z,13.40
2023-04-18T08:56:00.504Z,13.60
2023-04-18T08:58:27.779Z,13.90
2023-04-18T09:00:55.150Z,13.70
2023-04-18T09:03:40.304Z,13.40
2023-04-18T09:06:08.898Z,13.00
2023-04-18T09:08:36.144Z,12.50
2023-04-18T09:11:22.054Z,12.00
2023-04-18T09:13:50.506Z,11.80
2023-04-18T09:16:20.904Z,11.70
2023-04-18T09:19:18.796Z,11.90
2023-04-18T09:21:47.362Z,12.10
2023-04-18T09:24:21.202Z,12.20
2023-04-18T09:26:50.082Z,12.10
2023-04-18T09:29:18.716Z,12.20
2023-04-18T09:31:57.637Z,12.30
2023-04-18T09:34:25.242Z,12.60
2023-04-18T09:37:12.529Z,12.70
2023-04-18T09:39:40.029Z,12.60
2023-04-18T09:42:09.065Z,12.70
2023-04-18T09:44:36.588Z,12.70
2023-04-18T09:47:03.659Z,12.40
2023-04-18T09:49:30.616Z,12.40
2023-04-18T09:51:58.779Z,12.50
2023-04-18T09:54:26.484Z,12.90
2023-04-18T09:56:55.560Z,13.10
2023-04-18T09:59:44.362Z,12.70
2023-04-18T10:02:19.931Z,13.00
2023-04-18T10:04:47.411Z,12.80
2023-04-18T10:07:17.063Z,12.50
2023-04-18T10:09:46.971Z,12.30
2023-04-18T10:12:14.744Z,12.50
2023-04-18T10:14:43.388Z,12.90
2023-04-18T10:17:11.952Z,13.20
2023-04-18T10:19:42.166Z,13.20
2023-04-18T10:22:09.384Z,12.90
2023-04-18T10:24:55.325Z,12.90
2023-04-18T10:28:23.890Z,14.10
2023-04-18T10:31:13.305Z,14.90
2023-04-18T10:34:00.818Z,15.00
2023-04-18T10:36:33.960Z,16.90
2023-04-18T10:39:22.770Z,17.60
2023-04-18T10:41:51.848Z,17.60
2023-04-18T10:44:20.160Z,17.50
2023-04-18T10:46:53.535Z,17.10
2023-04-18T10:49:27.396Z,16.80
2023-04-18T10:52:07.865Z,15.90
2023-04-18T10:54:39.393Z,15.30
2023-04-18T10:57:10.472Z,15.10
2023-04-18T10:59:58.418Z,14.70
2023-04-18T11:02:32.440Z,14.10
2023-04-18T11:05:01.738Z,14.00
2023-04-18T11:07:49.349Z,14.50
2023-04-18T11:10:21.196Z,16.40
2023-04-18T11:12:48.947Z,16.10
2023-04-18T11:15:21.712Z,15.50
2023-04-18T11:18:15.818Z,15.10
2023-04-18T11:20:51.827Z,15.40
2023-04-18T11:23:31.798Z,15.30
2023-04-18T11:26:00.244Z,15.50
2023-04-18T11:28:33.467Z,15.80
2023-04-18T11:31:04.640Z,15.50
2023-04-18T11:33:34.992Z,15.20
2023-04-18T11:36:05.791Z,14.70
2023-04-18T11:38:36.608Z,14.60
2023-04-18T11:41:04.158Z,14.50
2023-04-18T11:43:31.626Z,14.80
2023-04-18T11:46:00.538Z,14.80
2023-04-18T11:48:38.022Z,14.70
2023-04-18T11:51:07.209Z,14.40
2023-04-18T11:53:38.624Z,14.40
2023-04-18T11:56:06.057Z,14.30
2023-04-18T11:58:37.028Z,14.50
2023-04-18T12:01:21.050Z,14.30
2023-04-18T12:04:10.287Z,14.20
2023-04-18T12:06:47.419Z,14.00
2023-04-18T12:09:17.388Z,13.70
2023-04-18T12:12:00.952Z,14.00
2023-04-18T12:14:28.631Z,14.60
2023-04-18T12:16:59.640Z,15.20
2023-04-18T12:19:28.472Z,16.10
2023-04-18T12:22:01.069Z,18.00
2023-04-18T12:24:29.299Z,18.50
2023-04-18T12:26:58.080Z,18.40
2023-04-18T12:29:26.195Z,16.90
2023-04-18T12:31:53.343Z,15.80
2023-04-18T12:34:22.644Z,14.90
2023-04-18T12:36:52.798Z,14.30
2023-04-18T12:39:20.087Z,14.00
2023-04-18T12:41:50.319Z,13.80
2023-04-18T12:44:18.715Z,13.50
2023-04-18T12:46:56.962Z,13.20
2023-04-18T12:49:24.172Z,13.20
2023-04-18T12:51:51.246Z,13.00
2023-04-18T12:54:18.489Z,12.80
2023-04-18T12:56:48.680Z,12.70
2023-04-18T12:59:24.848Z,12.80
2023-04-18T13:01:52.040Z,12.80
2023-04-18T13:04:19.242Z,12.70
2023-04-18T13:06:46.534Z,12.70
2023-04-18T13:09:13.823Z,12.90
2023-04-18T13:11:45.934Z,13.00
2023-04-18T13:14:18.103Z,13.40
2023-04-18T13:16:45.951Z,13.40
2023-04-18T13:19:13.466Z,13.20
2023-04-18T13:21:40.675Z,13.20
2023-04-18T13:24:07.851Z,13.30
2023-04-18T13:26:36.286Z,13.50
2023-04-18T13:29:04.124Z,13.50
2023-04-18T13:31:31.909Z,13.60
2023-04-18T13:34:03.807Z,13.60
2023-04-18T13:36:32.120Z,13.80
2023-04-18T13:38:59.748Z,13.90
2023-04-18T13:41:27.740Z,13.90
2023-04-18T13:43:55.100Z,14.10
2023-04-18T13:46:23.546Z,14.10
2023-04-18T13:48:50.710Z,13.90
2023-04-18T13:51:17.838Z,13.70
2023-04-18T13:53:45.038Z,13.60
2023-04-18T13:56:13.635Z,13.50
2023-04-18T13:58:43.429Z,13.40
2023-04-18T14:01:10.733Z,13.70
2023-04-18T14:03:38.895Z,13.90
2023-04-18T14:06:06.908Z,13.70
2023-04-18T14:08:34.950Z,13.70
2023-04-18T14:11:02.076Z,13.60
2023-04-18T14:13:29.185Z,13.60
2023-04-18T14:15:56.167Z,13.60
2023-04-18T14:18:24.680Z,13.80
2023-04-18T14:20:52.156Z,13.90
2023-04-18T14:23:19.283Z,14.20
2023-04-18T14:25:48.980Z,14.20
2023-04-18T14:28:19.060Z,14.10
2023-04-18T14:30:46.462Z,14.20
2023-04-18T14:33:13.472Z,14.20
2023-04-18T14:35:51.947Z,14.10
2023-04-18T14:38:19.398Z,13.90
2023-04-18T14:40:47.050Z,14.00
2023-04-18T14:43:14.263Z,13.80
2023-04-18T14:45:41.126Z,13.60
2023-04-18T14:48:10.192Z,13.70
2023-04-18T14:50:41.059Z,13.70
2023-04-18T14:53:10.846Z,13.60
2023-04-18T14:55:37.933Z,13.70
2023-04-18T14:58:04.669Z,13.80
2023-04-18T15:00:45.463Z,13.60
2023-04-18T15:03:20.175Z,13.40
2023-04-18T15:05:51.828Z,13.40
2023-04-18T15:08:19.322Z,13.60
2023-04-18T15:10:57.158Z,13.80
2023-04-18T15:13:30.831Z,13.90
2023-04-18T15:16:02.326Z,13.80
2023-04-18T15:18:32.398Z,13.70
2023-04-18T15:21:07.264Z,13.80
2023-04-18T15:23:45.904Z,13.80
2023-04-18T15:26:17.639Z,13.80
2023-04-18T15:28:48.652Z,13.90
2023-04-18T15:31:18.923Z,13.90
2023-04-18T15:33:50.287Z,13.80
2023-04-18T15:36:20.540Z,13.70
2023-04-18T15:38:48.260Z,13.70
2023-04-18T15:41:21.659Z,13.70
2023-04-18T15:43:56.011Z,13.70
2023-04-18T15:46:23.192Z,13.70
2023-04-18T15:48:50.985Z,13.70
2023-04-18T15:51:30.544Z,13.70
2023-04-18T15:54:02.141Z,13.70
2023-04-18T15:56:33.172Z,13.60
2023-04-18T15:59:11.328Z,13.60
2023-04-18T16:01:46.197Z,13.70
2023-04-18T16:04:23.797Z,13.50
2023-04-18T16:06:50.590Z,13.40
2023-04-18T16:09:17.239Z,13.30
2023-04-18T16:11:44.054Z,13.20
2023-04-18T16:14:10.741Z,13.20
2023-04-18T16:16:37.523Z,13.10
2023-04-18T16:19:05.482Z,13.00
2023-04-18T16:21:32.710Z,13.00
2023-04-18T16:24:01.677Z,13.00
2023-04-18T16:26:32.456Z,13.20
2023-04-18T16:29:02.646Z,13.10
2023-04-18T16:31:37.130Z,13.10
2023-04-18T16:34:24.703Z,13.10
2023-04-18T16:40:40.628Z,13.20
2023-04-18T16:43:45.150Z,13.20
2023-04-18T16:46:41.076Z,13.20
2023-04-18T16:49:35.576Z,13.20
2023-04-18T16:52:09.185Z,13.10
2023-04-18T16:55:15.430Z,13.10
2023-04-18T17:00:41.375Z,13.00
2023-04-18T17:03:36.988Z,13.00
2023-04-18T17:06:17.972Z,13.00
2023-04-18T17:08:58.936Z,13.00
2023-04-18T17:14:55.714Z,12.90
2023-04-18T17:17:39.886Z,12.80
2023-04-18T17:20:14.745Z,12.70
2023-04-18T17:22:43.585Z,12.70
2023-04-18T17:25:36.998Z,12.70
2023-04-18T17:28:39.123Z,12.70
2023-04-18T17:31:34.562Z,12.60
2023-04-18T17:34:19.295Z,12.60
2023-04-18T17:40:24.469Z,12.50
2023-04-18T17:43:20.732Z,12.40
2023-04-18T17:46:30.938Z,12.40
2023-04-18T17:49:13.703Z,12.30
2023-04-18T17:51:55.535Z,12.30
2023-04-18T17:54:23.911Z,12.30
2023-04-18T17:57:11.520Z,12.30
2023-04-18T17:59:42.039Z,12.30
2023-04-18T18:02:25.186Z,12.20
2023-04-18T18:04:53.618Z,12.30
2023-04-18T18:07:23.778Z,12.20
2023-04-18T18:09:53.486Z,12.20
2023-04-18T18:12:23.387Z,12.20
2023-04-18T18:14:51.005Z,12.10
2023-04-18T18:17:26.076Z,12.00
2023-04-18T18:20:09.328Z,12.00
2023-04-18T18:23:22.916Z,11.90
2023-04-18T18:26:41.097Z,11.80
2023-04-18T18:29:20.197Z,11.70
2023-04-18T18:32:01.472Z,11.70
2023-04-18T18:34:36.854Z,11.70
2023-04-18T18:41:07.612Z,11.60
2023-04-18T18:46:41.065Z,11.50
2023-04-18T18:49:39.430Z,11.40
2023-04-18T18:56:12.380Z,11.30
2023-04-18T18:58:37.634Z,11.30
2023-04-18T19:01:30.283Z,11.30
2023-04-18T19:04:23.393Z,11.20
2023-04-18T19:07:03.300Z,11.20
2023-04-18T19:09:51.213Z,11.20
2023-04-18T19:12:22.905Z,11.20
2023-04-18T19:15:06.292Z,11.10
2023-04-18T19:18:22.296Z,11.10
2023-04-18T19:21:01.340Z,11.10
2023-04-18T19:23:52.746Z,11.00
2023-04-18T19:26:41.196Z,11.00
2023-04-18T19:29:17.334Z,11.00
2023-04-18T19:31:59.113Z,11.00
2023-04-18T19:34:40.476Z,10.90
2023-04-18T19:37:13.447Z,10.90
2023-04-18T19:40:06.956Z,10.80
2023-04-18T19:42:57.403Z,10.80
2023-04-18T19:45:43.144Z,10.80
2023-04-18T19:48:27.508Z,10.80
2023-04-18T19:51:12.867Z,10.70
2023-04-18T19:53:56.511Z,10.70
2023-04-18T19:56:44.177Z,10.70
2023-04-18T19:59:12.106Z,10.60
2023-04-18T20:01:50.472Z,10.60
2023-04-18T20:04:28.994Z,10.60
2023-04-18T20:07:11.281Z,10.60
2023-04-18T20:09:58.016Z,10.60
2023-04-18T20:12:35.339Z,10.50
2023-04-18T20:15:22.253Z,10.50
2023-04-18T20:18:02.668Z,10.50
2023-04-18T20:20:42.024Z,10.40
2023-04-18T20:23:21.052Z,10.50
2023-04-18T20:26:12.281Z,10.50
2023-04-18T20:29:05.951Z,10.40
2023-04-18T20:31:39.973Z,10.30
2023-04-18T20:34:16.467Z,10.40
2023-04-18T20:36:53.681Z,10.30
2023-04-18T20:39:53.907Z,10.30
2023-04-18T20:42:44.315Z,10.30
2023-04-18T20:45:18.629Z,10.20
2023-04-18T20:47:46.913Z,10.20
2023-04-18T20:50:23.006Z,10.20
2023-04-18T20:52:57.315Z,10.10
2023-04-18T20:55:26.400Z,10.10
2023-04-18T20:57:53.849Z,10.10
2023-04-18T21:00:27.092Z,10.10
2023-04-18T21:02:57.302Z,10.00
2023-04-18T21:05:30.886Z,10.00
2023-04-18T21:08:16.042Z,9.90
2023-04-18T21:10:56.392Z,9.90
2023-04-18T21:13:41.107Z,9.80
2023-04-18T21:16:10.339Z,9.70
2023-04-18T21:18:59.197Z,9.70
2023-04-18T21:21:27.945Z,9.60
2023-04-18T21:24:01.835Z,9.60
2023-04-18T21:26:42.833Z,9.60
2023-04-18T21:29:39.203Z,9.50
2023-04-18T21:32:07.716Z,9.50
2023-04-18T21:34:50.395Z,9.50
2023-04-18T21:37:26.818Z,9.40
2023-04-18T21:39:57.506Z,9.40
2023-04-18T21:42:27.356Z,9.30
2023-04-18T21:45:24.254Z,9.30
2023-04-18T21:48:19.340Z,9.30
2023-04-18T21:51:13.618Z,9.30
2023-04-18T21:53:48.193Z,9.30
2023-04-18T21:56:33.114Z,9.20
2023-04-18T21:59:11.649Z,9.20
2023-04-18T22:01:47.675Z,9.20
2023-04-18T22:04:17.765Z,9.10
2023-04-18T22:07:26.757Z,9.10
2023-04-18T22:10:00.167Z,9.00
2023-04-18T22:12:40.227Z,9.00
